Northern Sonoma County Latest

25 Stations

15 Minute Data | America/Los_Angeles
as of 5/4/26 6:55 AM PDT
Station Date Time Temp (°F) RH (%) Dew Pt (°F) Wind Spd (mph) Wind Dir (°) Wind Gust (mph) Latest Rain (In) Daily Rain (In) Daily Max Temp (°F) Daily Min Temp (°F)
Bavarian Lion EFW 5/4/26 0645 49.6   2.6 - - - - - 0.00 0.00 50.8   2.8 46.8   5.1
Rockpile Lower (Cooley) 5/4/26 0630 49.6   0.1 87   10 45.8   3.0 1.4   0.1 NW | 318 5.1   2.0 0.00 0.00 51.4   0.2 48.7   0.8
Rockpile Upper (Cooley) 5/4/26 0645 46.0   1.2 94   5 44.5   2.7 8.3   5.4 NW | 319 13.2   7.5 0.00 0.00 47.6   0.8 45.5   1.2
Lower Dry Creek Valley 5/4/26 0645 49.0   4.5 100   9 49.0   1.9 0.0   0.9 N | 0 0.0   4.3 0.00 0.00 54.8   0.2 48.5   4.8
Geyserville-South (Nervo Station) 5/4/26 0645 51.1   1.1 - - 0.0   0.3 SW | 233 0.7   1.7 0.00 0.00 54.2   0.5 50.2   1.7
Franz Valley (Stornetta) 5/4/26 0645 46.8   5.0 95   7 45.6   2.9 0.3   1.8 E | 95 1.2   2.5 0.00 0.00 49.5   3.4 45.8   5.9
Geyserville (Ranch 3) 5/4/26 0645 52.0   0.8 90   9 49.3   3.5 1.1   1.5 WNW | 287 2.2   2.1 0.00 0.00 55.2   0.2 51.6   1.2
Geyserville-North (Hoffman) 5/4/26 0645 51.7   1.6 92   0 49.4   1.6 0.4   1.9 NW | 318 1.3   2.8 0.00 0.00 55.4   0.3 50.9   2.2
Knights Valley (Bavarian Lion) 5/4/26 0645 49.9   1.7 94   1 48.2   1.4 0.0   0.3 N | 0 0.0   2.3 0.00 0.00 51.6   0.9 46.8   4.8
HWY 128/Chalk Hill Rd (Landslide) 5/4/26 0600 50.6   2.5 93   3 48.7   1.7 0.2   0.0 SW | 235 1.4   0.0 0.00 0.00 54.3   0.5 50.5   2.5
Newman Knights Valley 5/4/26 0645 51.8   0.8 83   3 46.8   1.6 2.1   1.9 SSW | 210 4.2   3.4 0.00 0.00 53.8   0.3 50.6   1.9
Jimtown-North (Piccolo Ranch 15) 5/4/26 0645 51.3   1.6 89   1 48.3   1.4 0.2   0.2 WNW | 303 1.5   1.1 0.00 0.00 54.6   0.3 50.9   1.8
Peterson (Ranch 09) 5/4/26 0645 50.5   1.7 91   1 47.9   2.0 1.0   0.2 S | 182 2.2   0.7 0.00 0.00 54.2   0.5 49.8   2.3
Cloverdale-SE (Ranch 38) 5/4/26 0645 50.1   1.2 96   1 49.1   1.4 0.1   4.5 SW | 226 0.9   5.3 0.00 0.00 53.8   1.0 49.5   1.4
Geyserville-East (Ranch 40) 5/4/26 0630 49.5   0.6 96   2 48.6   1.3 0.0   3.1 N | 0 0.0   5.2 0.00 0.00 52.1   0.5 49.2   0.8
N Chalk Hill Rd (Ranch 63) 5/4/26 0645 49.1   2.2 92   1 47.0   1.8 0.0   0.7 N | 0 0.0   2.5 0.00 0.00 53.3   0.2 49.1   2.1
Cloverdale-East (Ranch 83) 5/4/26 0645 51.8   1.3 - - 0.0   2.3 SSW | 193 1.1   3.7 0.00 0.00 56.2   1.4 50.9   1.9
Crazy Creek Ranch 5/4/26 0645 52.0   1.0 92   3 49.7   1.9 0.8   0.2 SW | 232 2.4   0.6 0.00 0.00 54.5   0.1 51.6   0.7
Lytton East (Hill 5) 5/4/26 0645 49.7   2.4 94   0 48.2   2.4 2.0   1.3 W | 278 3.2   1.1 0.00 0.00 53.4   0.3 49.2   2.8
Lytton East (Shop Hill Bottom) 5/4/26 0645 49.8   2.5 94   1 48.1   2.2 0.9   0.2 W | 278 2.1   0.1 0.00 0.00 53.9   0.3 48.4   3.7
Lytton West Hill (23PS) 5/4/26 0645 49.3   3.2 95   1 47.9   2.9 1.1   1.0 WNW | 290 1.8   2.1 0.00 0.00 54.2   0.2 49.1   3.5
Lytton West Lower (Lew 6) 5/4/26 0645 48.5   4.0 99   6 48.2   2.1 0.1   0.9 WSW | 237 0.7   1.8 0.00 0.00 54.1   0.3 47.5   4.9
Whitton Ranch (201e) 5/4/26 0645 51.3   1.1 92   3 49.0   2.0 0.3   1.2 SE | 137 1.3   1.1 0.00 0.00 54.4   0.4 49.8   2.6
Upper Dry Creek Valley 5/4/26 0645 49.8   3.7 94   4 48.2   2.6 0.0   2.3 ENE | 61 0.5   4.2 0.00 0.00 55.1   0.5 48.2   5.0
Big River 5/4/26 0645 49.2   3.2 97   2 48.5   2.7 0.0   0.0 NW | 315 0.5   0.3 0.00 0.00 53.8   0.2 48.9   3.4
Max     52.0 100 49.7 8.3 - 13.2 0.00 0.00 56.2 51.6
Avg     50.0 93 48.0 0.8 - 2.0 0.00 - - -
Min     46.0 83 44.5 0.0 - 0.0 0.00 0.00 47.6 45.5